Etusivu
METAR-TAF:

METAR-TAF

Lentoasemat :

Seyresse

Dax, Ranska

Leveyspiiri: 43-41N, Pituuspiiri: 001-04W, korkeus merenpinnasta: 32 m

Tämänhetkinen sää

Tämä raportti tehtiin 17 minuuttia sitten, kello 23.30 UTC
Tuuli 5 kn lännestä, vaihdellen lounaan ja lännen/luoteen välillä
Lämpötila 17°C
Kosteus 82%
Ilmanpaine 1018 hPa
Näkyvyys 10 km tai enemmän

METAR: LFBY 252330Z AUTO 26005KT 230V290 9999 // ////// 17/14 Q1018

Aika: 01:47 (23:47 UTC)


TAF: puuttuu

Säähavainnot ja -ennusteet yli 4000 lentoasemalta (METAR- ja TAF-raportit).

Käytössä olevat sääasemat on merkitty karttaan keltaisilla ja punaisilla pisteillä.

Aseta hiiri pisteen päälle nähdäksesi sääaseman nimen.

Klikkaa sitten nähdäksesi säähavainnot ja -ennusteet.

Kartan vaihtaminen: klikkaa mustalla rastilla varustettuja vihreitä pisteitä, niin voit zoomata sisään; viivalla varustettua vihreää pistettä, niin voit zoomata ulos tai vihreitä nuolia, niin pääset viereisille kartoille.


METAR-TAF: